sensor_id;sensor_type;location;lat;lon;timestamp;P1;durP1;ratioP1;P2;durP2;ratioP2
26594;SDS011;14238;49.496;8.154;2024-03-23T00:53:09;11.23;;;9.83;;
26594;SDS011;14238;49.496;8.154;2024-03-23T00:55:35;13.53;;;12.00;;
26594;SDS011;14238;49.496;8.154;2024-03-23T00:58:01;12.63;;;11.43;;
26594;SDS011;14238;49.496;8.154;2024-03-23T01:00:27;12.13;;;10.93;;
26594;SDS011;14238;49.496;8.154;2024-03-23T01:02:52;14.63;;;11.80;;
26594;SDS011;14238;49.496;8.154;2024-03-23T01:05:18;12.50;;;11.23;;
26594;SDS011;14238;49.496;8.154;2024-03-23T01:07:44;16.80;;;12.80;;
26594;SDS011;14238;49.496;8.154;2024-03-23T01:10:10;15.17;;;13.67;;
26594;SDS011;14238;49.496;8.154;2024-03-23T01:12:36;16.87;;;14.07;;
26594;SDS011;14238;49.496;8.154;2024-03-23T01:15:02;16.17;;;14.50;;
26594;SDS011;14238;49.496;8.154;2024-03-23T01:17:28;15.97;;;13.73;;
26594;SDS011;14238;49.496;8.154;2024-03-23T01:19:54;16.60;;;14.00;;
26594;SDS011;14238;49.496;8.154;2024-03-23T01:22:20;15.33;;;13.23;;
26594;SDS011;14238;49.496;8.154;2024-03-23T01:24:46;15.70;;;14.20;;
26594;SDS011;14238;49.496;8.154;2024-03-23T01:27:12;17.53;;;14.37;;
26594;SDS011;14238;49.496;8.154;2024-03-23T01:29:38;14.13;;;12.83;;
26594;SDS011;14238;49.496;8.154;2024-03-23T01:32:04;14.57;;;13.17;;
26594;SDS011;14238;49.496;8.154;2024-03-23T01:34:31;17.13;;;14.23;;
26594;SDS011;14238;49.496;8.154;2024-03-23T01:36:56;14.93;;;13.43;;
26594;SDS011;14238;49.496;8.154;2024-03-23T01:39:22;15.77;;;13.83;;
26594;SDS011;14238;49.496;8.154;2024-03-23T01:41:48;16.73;;;14.97;;
26594;SDS011;14238;49.496;8.154;2024-03-23T01:44:15;18.00;;;15.00;;
26594;SDS011;14238;49.496;8.154;2024-03-23T01:46:41;16.10;;;14.40;;
26594;SDS011;14238;49.496;8.154;2024-03-23T01:49:07;19.50;;;16.73;;
26594;SDS011;14238;49.496;8.154;2024-03-23T01:51:34;18.83;;;15.73;;
26594;SDS011;14238;49.496;8.154;2024-03-23T01:54:04;18.00;;;16.30;;
26594;SDS011;14238;49.496;8.154;2024-03-23T01:56:33;16.37;;;14.77;;
26594;SDS011;14238;49.496;8.154;2024-03-23T01:59:02;17.90;;;14.13;;
26594;SDS011;14238;49.496;8.154;2024-03-23T02:01:28;18.03;;;16.20;;
26594;SDS011;14238;49.496;8.154;2024-03-23T02:03:55;16.50;;;13.63;;
26594;SDS011;14238;49.496;8.154;2024-03-23T02:06:21;17.57;;;15.07;;
26594;SDS011;14238;49.496;8.154;2024-03-23T02:08:47;16.77;;;15.13;;
26594;SDS011;14238;49.496;8.154;2024-03-23T02:11:14;16.43;;;14.73;;
26594;SDS011;14238;49.496;8.154;2024-03-23T02:13:39;17.93;;;15.43;;
26594;SDS011;14238;49.496;8.154;2024-03-23T02:16:05;15.90;;;14.20;;
26594;SDS011;14238;49.496;8.154;2024-03-23T02:18:35;15.47;;;13.53;;
26594;SDS011;14238;49.496;8.154;2024-03-23T02:21:00;17.17;;;15.37;;
26594;SDS011;14238;49.496;8.154;2024-03-23T02:23:26;16.23;;;14.53;;
26594;SDS011;14238;49.496;8.154;2024-03-23T02:25:52;16.47;;;14.47;;
26594;SDS011;14238;49.496;8.154;2024-03-23T02:28:19;16.37;;;14.83;;
26594;SDS011;14238;49.496;8.154;2024-03-23T02:30:45;16.37;;;14.40;;
26594;SDS011;14238;49.496;8.154;2024-03-23T02:33:11;15.63;;;14.07;;
26594;SDS011;14238;49.496;8.154;2024-03-23T02:35:37;14.33;;;12.80;;
26594;SDS011;14238;49.496;8.154;2024-03-23T02:38:03;15.70;;;14.10;;
26594;SDS011;14238;49.496;8.154;2024-03-23T02:40:29;14.33;;;12.83;;
26594;SDS011;14238;49.496;8.154;2024-03-23T02:42:55;13.80;;;12.30;;
26594;SDS011;14238;49.496;8.154;2024-03-23T02:45:21;13.10;;;11.80;;
26594;SDS011;14238;49.496;8.154;2024-03-23T02:47:47;13.67;;;12.17;;
26594;SDS011;14238;49.496;8.154;2024-03-23T02:50:16;13.33;;;11.93;;
26594;SDS011;14238;49.496;8.154;2024-03-23T02:52:42;14.43;;;12.70;;
26594;SDS011;14238;49.496;8.154;2024-03-23T02:55:08;14.40;;;12.90;;
26594;SDS011;14238;49.496;8.154;2024-03-23T02:57:34;15.60;;;13.87;;
26594;SDS011;14238;49.496;8.154;2024-03-23T03:00:00;15.30;;;13.67;;
26594;SDS011;14238;49.496;8.154;2024-03-23T03:02:26;17.13;;;14.10;;
26594;SDS011;14238;49.496;8.154;2024-03-23T03:04:52;15.83;;;14.00;;
26594;SDS011;14238;49.496;8.154;2024-03-23T03:07:18;18.90;;;13.97;;
26594;SDS011;14238;49.496;8.154;2024-03-23T03:09:44;17.70;;;14.00;;
26594;SDS011;14238;49.496;8.154;2024-03-23T03:12:10;18.43;;;14.63;;
26594;SDS011;14238;49.496;8.154;2024-03-23T03:14:36;16.53;;;14.60;;
26594;SDS011;14238;49.496;8.154;2024-03-23T03:17:02;17.77;;;15.00;;
26594;SDS011;14238;49.496;8.154;2024-03-23T03:19:28;16.83;;;15.00;;
26594;SDS011;14238;49.496;8.154;2024-03-23T03:21:54;19.30;;;16.30;;
26594;SDS011;14238;49.496;8.154;2024-03-23T03:24:21;19.80;;;16.10;;
26594;SDS011;14238;49.496;8.154;2024-03-23T03:26:47;18.17;;;15.53;;
26594;SDS011;14238;49.496;8.154;2024-03-23T03:29:13;20.80;;;15.30;;
26594;SDS011;14238;49.496;8.154;2024-03-23T03:31:39;17.30;;;15.43;;
26594;SDS011;14238;49.496;8.154;2024-03-23T03:34:05;18.57;;;15.83;;
26594;SDS011;14238;49.496;8.154;2024-03-23T03:36:31;15.87;;;13.83;;
26594;SDS011;14238;49.496;8.154;2024-03-23T03:38:57;17.90;;;15.63;;
26594;SDS011;14238;49.496;8.154;2024-03-23T03:41:23;17.33;;;14.00;;
26594;SDS011;14238;49.496;8.154;2024-03-23T03:43:49;15.10;;;13.50;;
26594;SDS011;14238;49.496;8.154;2024-03-23T03:46:15;18.47;;;15.30;;
26594;SDS011;14238;49.496;8.154;2024-03-23T03:48:41;14.73;;;13.20;;
26594;SDS011;14238;49.496;8.154;2024-03-23T03:51:09;16.93;;;13.70;;
26594;SDS011;14238;49.496;8.154;2024-03-23T03:53:35;14.33;;;12.40;;
26594;SDS011;14238;49.496;8.154;2024-03-23T03:56:01;14.83;;;11.80;;
26594;SDS011;14238;49.496;8.154;2024-03-23T03:58:27;15.43;;;13.27;;
26594;SDS011;14238;49.496;8.154;2024-03-23T04:00:53;15.87;;;13.00;;
26594;SDS011;14238;49.496;8.154;2024-03-23T04:03:20;17.37;;;14.03;;
26594;SDS011;14238;49.496;8.154;2024-03-23T04:05:50;15.57;;;13.50;;
26594;SDS011;14238;49.496;8.154;2024-03-23T04:08:16;16.00;;;12.27;;
26594;SDS011;14238;49.496;8.154;2024-03-23T04:10:42;13.60;;;11.93;;
26594;SDS011;14238;49.496;8.154;2024-03-23T04:13:08;11.90;;;9.80;;
26594;SDS011;14238;49.496;8.154;2024-03-23T04:15:34;11.60;;;10.37;;
26594;SDS011;14238;49.496;8.154;2024-03-23T04:18:00;11.30;;;10.20;;
26594;SDS011;14238;49.496;8.154;2024-03-23T04:20:26;9.70;;;8.70;;
26594;SDS011;14238;49.496;8.154;2024-03-23T04:22:51;9.30;;;8.13;;
26594;SDS011;14238;49.496;8.154;2024-03-23T04:25:18;10.43;;;9.43;;
26594;SDS011;14238;49.496;8.154;2024-03-23T04:27:44;10.43;;;8.47;;
26594;SDS011;14238;49.496;8.154;2024-03-23T04:30:11;8.20;;;7.40;;
26594;SDS011;14238;49.496;8.154;2024-03-23T04:32:37;9.00;;;7.23;;
26594;SDS011;14238;49.496;8.154;2024-03-23T04:35:03;8.20;;;7.30;;
26594;SDS011;14238;49.496;8.154;2024-03-23T04:37:34;7.93;;;6.93;;
26594;SDS011;14238;49.496;8.154;2024-03-23T04:40:01;6.47;;;5.77;;
26594;SDS011;14238;49.496;8.154;2024-03-23T04:42:28;6.20;;;5.60;;
26594;SDS011;14238;49.496;8.154;2024-03-23T04:44:54;6.33;;;5.73;;
26594;SDS011;14238;49.496;8.154;2024-03-23T04:47:20;5.53;;;5.03;;
26594;SDS011;14238;49.496;8.154;2024-03-23T04:49:46;5.30;;;4.80;;
26594;SDS011;14238;49.496;8.154;2024-03-23T04:52:12;5.53;;;5.03;;
26594;SDS011;14238;49.496;8.154;2024-03-23T04:54:38;5.00;;;4.60;;
26594;SDS011;14238;49.496;8.154;2024-03-23T04:57:06;7.63;;;5.03;;
26594;SDS011;14238;49.496;8.154;2024-03-23T04:59:32;4.90;;;4.50;;
26594;SDS011;14238;49.496;8.154;2024-03-23T05:01:58;6.97;;;6.30;;
26594;SDS011;14238;49.496;8.154;2024-03-23T05:04:25;6.17;;;5.67;;
26594;SDS011;14238;49.496;8.154;2024-03-23T05:06:50;4.47;;;4.07;;
26594;SDS011;14238;49.496;8.154;2024-03-23T05:09:17;3.93;;;3.63;;
26594;SDS011;14238;49.496;8.154;2024-03-23T05:11:42;3.70;;;3.40;;
26594;SDS011;14238;49.496;8.154;2024-03-23T05:14:08;3.37;;;3.07;;
26594;SDS011;14238;49.496;8.154;2024-03-23T05:16:34;3.17;;;2.97;;
26594;SDS011;14238;49.496;8.154;2024-03-23T05:19:00;3.37;;;3.17;;
26594;SDS011;14238;49.496;8.154;2024-03-23T05:21:26;3.03;;;2.83;;
26594;SDS011;14238;49.496;8.154;2024-03-23T05:23:56;3.83;;;3.63;;
26594;SDS011;14238;49.496;8.154;2024-03-23T05:26:22;3.03;;;2.83;;
26594;SDS011;14238;49.496;8.154;2024-03-23T05:28:48;2.93;;;2.73;;
26594;SDS011;14238;49.496;8.154;2024-03-23T05:31:24;2.73;;;2.53;;
26594;SDS011;14238;49.496;8.154;2024-03-23T05:33:50;2.70;;;2.50;;
26594;SDS011;14238;49.496;8.154;2024-03-23T05:36:16;2.63;;;2.03;;
26594;SDS011;14238;49.496;8.154;2024-03-23T05:38:41;2.27;;;2.17;;
26594;SDS011;14238;49.496;8.154;2024-03-23T05:41:07;2.30;;;2.20;;
26594;SDS011;14238;49.496;8.154;2024-03-23T05:43:33;2.23;;;2.10;;
26594;SDS011;14238;49.496;8.154;2024-03-23T05:46:00;1.70;;;1.60;;
26594;SDS011;14238;49.496;8.154;2024-03-23T05:48:35;2.20;;;1.67;;
26594;SDS011;14238;49.496;8.154;2024-03-23T05:51:01;2.03;;;1.40;;
26594;SDS011;14238;49.496;8.154;2024-03-23T05:53:27;1.60;;;1.40;;
26594;SDS011;14238;49.496;8.154;2024-03-23T05:56:01;1.70;;;1.60;;
26594;SDS011;14238;49.496;8.154;2024-03-23T05:58:31;1.77;;;1.67;;
26594;SDS011;14238;49.496;8.154;2024-03-23T06:00:58;1.23;;;1.23;;
26594;SDS011;14238;49.496;8.154;2024-03-23T06:03:25;1.00;;;1.00;;
26594;SDS011;14238;49.496;8.154;2024-03-23T06:05:51;1.13;;;1.03;;
26594;SDS011;14238;49.496;8.154;2024-03-23T06:08:18;0.80;;;0.80;;
26594;SDS011;14238;49.496;8.154;2024-03-23T06:10:44;1.00;;;1.00;;
26594;SDS011;14238;49.496;8.154;2024-03-23T06:13:10;0.93;;;0.90;;
26594;SDS011;14238;49.496;8.154;2024-03-23T06:15:37;0.80;;;0.80;;
26594;SDS011;14238;49.496;8.154;2024-03-23T06:18:03;1.17;;;0.50;;
26594;SDS011;14238;49.496;8.154;2024-03-23T06:20:29;0.53;;;0.53;;
26594;SDS011;14238;49.496;8.154;2024-03-23T06:22:55;0.80;;;0.80;;
26594;SDS011;14238;49.496;8.154;2024-03-23T06:25:21;0.50;;;0.50;;
26594;SDS011;14238;49.496;8.154;2024-03-23T06:27:47;0.43;;;0.43;;
26594;SDS011;14238;49.496;8.154;2024-03-23T06:30:13;0.60;;;0.60;;
26594;SDS011;14238;49.496;8.154;2024-03-23T06:32:39;0.50;;;0.50;;
26594;SDS011;14238;49.496;8.154;2024-03-23T06:35:05;0.50;;;0.50;;
26594;SDS011;14238;49.496;8.154;2024-03-23T06:37:33;0.50;;;0.50;;
26594;SDS011;14238;49.496;8.154;2024-03-23T06:39:59;0.40;;;0.40;;
26594;SDS011;14238;49.496;8.154;2024-03-23T06:42:25;0.50;;;0.50;;
26594;SDS011;14238;49.496;8.154;2024-03-23T06:44:51;0.40;;;0.40;;
26594;SDS011;14238;49.496;8.154;2024-03-23T06:47:17;0.50;;;0.50;;
26594;SDS011;14238;49.496;8.154;2024-03-23T06:49:43;0.47;;;0.47;;
26594;SDS011;14238;49.496;8.154;2024-03-23T06:52:09;0.80;;;0.80;;
26594;SDS011;14238;49.496;8.154;2024-03-23T06:54:35;1.10;;;1.00;;
26594;SDS011;14238;49.496;8.154;2024-03-23T06:57:01;0.80;;;0.80;;
26594;SDS011;14238;49.496;8.154;2024-03-23T06:59:28;0.70;;;0.70;;
26594;SDS011;14238;49.496;8.154;2024-03-23T07:01:55;0.80;;;0.80;;
26594;SDS011;14238;49.496;8.154;2024-03-23T07:04:21;1.37;;;1.27;;
26594;SDS011;14238;49.496;8.154;2024-03-23T07:06:47;0.80;;;0.80;;
26594;SDS011;14238;49.496;8.154;2024-03-23T07:09:13;1.10;;;1.00;;
26594;SDS011;14238;49.496;8.154;2024-03-23T07:11:39;0.97;;;0.90;;
26594;SDS011;14238;49.496;8.154;2024-03-23T07:14:05;1.90;;;1.23;;
26594;SDS011;14238;49.496;8.154;2024-03-23T07:16:32;0.80;;;0.80;;
26594;SDS011;14238;49.496;8.154;2024-03-23T07:18:58;1.20;;;1.10;;
26594;SDS011;14238;49.496;8.154;2024-03-23T07:21:24;2.80;;;1.43;;
26594;SDS011;14238;49.496;8.154;2024-03-23T07:23:50;2.23;;;1.33;;
26594;SDS011;14238;49.496;8.154;2024-03-23T07:26:16;3.27;;;1.87;;
26594;SDS011;14238;49.496;8.154;2024-03-23T07:28:43;2.47;;;1.90;;
26594;SDS011;14238;49.496;8.154;2024-03-23T07:31:11;1.50;;;1.20;;
26594;SDS011;14238;49.496;8.154;2024-03-23T07:33:41;3.57;;;1.50;;
26594;SDS011;14238;49.496;8.154;2024-03-23T07:36:07;2.13;;;1.50;;
26594;SDS011;14238;49.496;8.154;2024-03-23T07:38:33;3.77;;;1.77;;
26594;SDS011;14238;49.496;8.154;2024-03-23T07:41:09;3.80;;;1.20;;
26594;SDS011;14238;49.496;8.154;2024-03-23T07:43:37;2.23;;;1.70;;
26594;SDS011;14238;49.496;8.154;2024-03-23T07:46:04;2.00;;;1.63;;
26594;SDS011;14238;49.496;8.154;2024-03-23T07:48:30;1.70;;;1.60;;
26594;SDS011;14238;49.496;8.154;2024-03-23T07:53:22;1.80;;;1.70;;
26594;SDS011;14238;49.496;8.154;2024-03-23T07:56:01;2.27;;;1.77;;
26594;SDS011;14238;49.496;8.154;2024-03-23T07:58:27;3.53;;;2.00;;
26594;SDS011;14238;49.496;8.154;2024-03-23T08:00:53;2.23;;;2.03;;
26594;SDS011;14238;49.496;8.154;2024-03-23T08:03:20;2.60;;;1.97;;
26594;SDS011;14238;49.496;8.154;2024-03-23T08:05:46;2.57;;;2.37;;
26594;SDS011;14238;49.496;8.154;2024-03-23T08:08:12;3.70;;;2.23;;
26594;SDS011;14238;49.496;8.154;2024-03-23T08:10:48;2.50;;;1.90;;
26594;SDS011;14238;49.496;8.154;2024-03-23T08:13:14;3.37;;;3.07;;
26594;SDS011;14238;49.496;8.154;2024-03-23T08:15:40;4.40;;;2.70;;
26594;SDS011;14238;49.496;8.154;2024-03-23T08:18:06;3.57;;;2.03;;
26594;SDS011;14238;49.496;8.154;2024-03-23T08:20:32;4.40;;;2.87;;
26594;SDS011;14238;49.496;8.154;2024-03-23T08:22:58;3.83;;;2.30;;
26594;SDS011;14238;49.496;8.154;2024-03-23T08:25:24;2.87;;;2.40;;
26594;SDS011;14238;49.496;8.154;2024-03-23T08:27:50;3.70;;;2.73;;
26594;SDS011;14238;49.496;8.154;2024-03-23T08:30:16;4.43;;;3.03;;
26594;SDS011;14238;49.496;8.154;2024-03-23T08:32:42;3.63;;;2.80;;
26594;SDS011;14238;49.496;8.154;2024-03-23T08:35:08;3.93;;;3.20;;
26594;SDS011;14238;49.496;8.154;2024-03-23T08:37:34;4.63;;;3.50;;
26594;SDS011;14238;49.496;8.154;2024-03-23T08:40:00;4.90;;;2.80;;
26594;SDS011;14238;49.496;8.154;2024-03-23T08:42:26;3.33;;;2.30;;
26594;SDS011;14238;49.496;8.154;2024-03-23T08:44:52;4.10;;;3.63;;
26594;SDS011;14238;49.496;8.154;2024-03-23T08:47:18;4.03;;;3.47;;
26594;SDS011;14238;49.496;8.154;2024-03-23T08:49:44;5.63;;;3.60;;
26594;SDS011;14238;49.496;8.154;2024-03-23T08:52:10;8.40;;;3.90;;
26594;SDS011;14238;49.496;8.154;2024-03-23T08:54:36;5.67;;;4.10;;
26594;SDS011;14238;49.496;8.154;2024-03-23T08:57:02;4.90;;;3.57;;
26594;SDS011;14238;49.496;8.154;2024-03-23T08:59:28;4.40;;;3.80;;
26594;SDS011;14238;49.496;8.154;2024-03-23T09:01:54;3.73;;;3.37;;
26594;SDS011;14238;49.496;8.154;2024-03-23T09:04:20;4.43;;;3.43;;
26594;SDS011;14238;49.496;8.154;2024-03-23T09:06:46;3.90;;;3.30;;
26594;SDS011;14238;49.496;8.154;2024-03-23T09:09:12;5.93;;;4.07;;
26594;SDS011;14238;49.496;8.154;2024-03-23T09:11:38;7.30;;;3.60;;
26594;SDS011;14238;49.496;8.154;2024-03-23T09:14:04;3.87;;;3.20;;
26594;SDS011;14238;49.496;8.154;2024-03-23T09:16:30;5.03;;;3.40;;
26594;SDS011;14238;49.496;8.154;2024-03-23T09:18:56;6.57;;;2.90;;
26594;SDS011;14238;49.496;8.154;2024-03-23T09:21:22;3.50;;;3.20;;
26594;SDS011;14238;49.496;8.154;2024-03-23T09:23:48;5.07;;;3.00;;
26594;SDS011;14238;49.496;8.154;2024-03-23T09:26:14;4.40;;;3.90;;
26594;SDS011;14238;49.496;8.154;2024-03-23T09:28:40;3.87;;;3.43;;
26594;SDS011;14238;49.496;8.154;2024-03-23T09:31:06;5.40;;;2.73;;
26594;SDS011;14238;49.496;8.154;2024-03-23T09:33:33;5.17;;;2.90;;
26594;SDS011;14238;49.496;8.154;2024-03-23T09:36:02;11.87;;;3.70;;
26594;SDS011;14238;49.496;8.154;2024-03-23T09:38:28;3.47;;;2.80;;
26594;SDS011;14238;49.496;8.154;2024-03-23T09:40:54;2.67;;;2.30;;
26594;SDS011;14238;49.496;8.154;2024-03-23T09:43:20;6.40;;;3.83;;
26594;SDS011;14238;49.496;8.154;2024-03-23T09:45:46;4.50;;;2.30;;
26594;SDS011;14238;49.496;8.154;2024-03-23T09:48:12;4.40;;;2.90;;
26594;SDS011;14238;49.496;8.154;2024-03-23T09:50:38;3.27;;;2.67;;
26594;SDS011;14238;49.496;8.154;2024-03-23T09:53:08;5.00;;;2.80;;
26594;SDS011;14238;49.496;8.154;2024-03-23T09:55:34;4.27;;;2.80;;
26594;SDS011;14238;49.496;8.154;2024-03-23T09:58:01;6.00;;;2.80;;
26594;SDS011;14238;49.496;8.154;2024-03-23T10:00:26;2.40;;;2.20;;
26594;SDS011;14238;49.496;8.154;2024-03-23T10:02:56;6.10;;;2.40;;
26594;SDS011;14238;49.496;8.154;2024-03-23T10:05:26;2.60;;;2.27;;
26594;SDS011;14238;49.496;8.154;2024-03-23T10:07:52;3.20;;;2.90;;
26594;SDS011;14238;49.496;8.154;2024-03-23T10:10:19;3.47;;;2.27;;
26594;SDS011;14238;49.496;8.154;2024-03-23T10:12:46;4.10;;;2.77;;
26594;SDS011;14238;49.496;8.154;2024-03-23T10:15:19;4.17;;;3.07;;
26594;SDS011;14238;49.496;8.154;2024-03-23T10:17:46;3.80;;;2.70;;
26594;SDS011;14238;49.496;8.154;2024-03-23T10:20:12;3.80;;;2.67;;
26594;SDS011;14238;49.496;8.154;2024-03-23T10:22:38;3.10;;;2.60;;
26594;SDS011;14238;49.496;8.154;2024-03-23T10:25:08;5.17;;;2.43;;
26594;SDS011;14238;49.496;8.154;2024-03-23T10:27:34;2.63;;;2.43;;
26594;SDS011;14238;49.496;8.154;2024-03-23T10:30:10;4.00;;;2.90;;
26594;SDS011;14238;49.496;8.154;2024-03-23T10:32:36;5.00;;;2.50;;
26594;SDS011;14238;49.496;8.154;2024-03-23T10:37:44;4.37;;;2.73;;
26594;SDS011;14238;49.496;8.154;2024-03-23T10:40:14;2.37;;;2.13;;
26594;SDS011;14238;49.496;8.154;2024-03-23T10:42:40;4.97;;;2.87;;
26594;SDS011;14238;49.496;8.154;2024-03-23T10:45:07;4.50;;;3.23;;
26594;SDS011;14238;49.496;8.154;2024-03-23T10:47:34;3.60;;;2.50;;
26594;SDS011;14238;49.496;8.154;2024-03-23T10:50:01;3.47;;;2.40;;
26594;SDS011;14238;49.496;8.154;2024-03-23T10:52:27;3.90;;;2.57;;
26594;SDS011;14238;49.496;8.154;2024-03-23T10:54:53;4.57;;;2.30;;
26594;SDS011;14238;49.496;8.154;2024-03-23T10:57:23;4.60;;;2.90;;
26594;SDS011;14238;49.496;8.154;2024-03-23T10:59:51;5.20;;;2.90;;
26594;SDS011;14238;49.496;8.154;2024-03-23T11:02:18;2.80;;;2.60;;
26594;SDS011;14238;49.496;8.154;2024-03-23T11:04:45;3.37;;;2.37;;
26594;SDS011;14238;49.496;8.154;2024-03-23T11:09:49;6.43;;;2.30;;
26594;SDS011;14238;49.496;8.154;2024-03-23T11:14:45;3.20;;;2.90;;
26594;SDS011;14238;49.496;8.154;2024-03-23T11:17:13;3.43;;;3.10;;
26594;SDS011;14238;49.496;8.154;2024-03-23T11:19:43;6.37;;;3.33;;
26594;SDS011;14238;49.496;8.154;2024-03-23T11:22:09;5.60;;;3.00;;
26594;SDS011;14238;49.496;8.154;2024-03-23T11:24:35;3.00;;;2.60;;
26594;SDS011;14238;49.496;8.154;2024-03-23T11:27:05;2.83;;;2.27;;
26594;SDS011;14238;49.496;8.154;2024-03-23T11:29:41;2.70;;;1.83;;
26594;SDS011;14238;49.496;8.154;2024-03-23T11:32:07;4.07;;;2.37;;
26594;SDS011;14238;49.496;8.154;2024-03-23T11:34:38;2.40;;;1.93;;
26594;SDS011;14238;49.496;8.154;2024-03-23T11:37:04;2.07;;;1.80;;
26594;SDS011;14238;49.496;8.154;2024-03-23T11:39:31;3.43;;;2.10;;
26594;SDS011;14238;49.496;8.154;2024-03-23T11:41:57;4.53;;;1.97;;
26594;SDS011;14238;49.496;8.154;2024-03-23T11:44:23;2.73;;;1.77;;
26594;SDS011;14238;49.496;8.154;2024-03-23T11:46:50;3.87;;;2.23;;
26594;SDS011;14238;49.496;8.154;2024-03-23T11:49:23;2.73;;;2.00;;
26594;SDS011;14238;49.496;8.154;2024-03-23T11:51:50;4.27;;;2.53;;
26594;SDS011;14238;49.496;8.154;2024-03-23T11:54:16;2.03;;;1.90;;
26594;SDS011;14238;49.496;8.154;2024-03-23T11:56:57;3.77;;;1.93;;
26594;SDS011;14238;49.496;8.154;2024-03-23T11:59:36;2.50;;;2.30;;
26594;SDS011;14238;49.496;8.154;2024-03-23T12:02:09;2.53;;;2.23;;
26594;SDS011;14238;49.496;8.154;2024-03-23T12:04:35;1.97;;;1.83;;
26594;SDS011;14238;49.496;8.154;2024-03-23T12:07:14;2.00;;;1.77;;
26594;SDS011;14238;49.496;8.154;2024-03-23T12:09:41;2.43;;;2.00;;
26594;SDS011;14238;49.496;8.154;2024-03-23T12:12:11;2.50;;;1.50;;
26594;SDS011;14238;49.496;8.154;2024-03-23T12:14:40;2.73;;;1.87;;
26594;SDS011;14238;49.496;8.154;2024-03-23T12:17:13;1.73;;;1.63;;
26594;SDS011;14238;49.496;8.154;2024-03-23T12:19:39;2.00;;;1.90;;
26594;SDS011;14238;49.496;8.154;2024-03-23T12:22:06;1.60;;;1.50;;
26594;SDS011;14238;49.496;8.154;2024-03-23T12:24:32;1.10;;;1.10;;
26594;SDS011;14238;49.496;8.154;2024-03-23T12:27:02;4.50;;;2.40;;
26594;SDS011;14238;49.496;8.154;2024-03-23T12:29:29;4.30;;;1.90;;
26594;SDS011;14238;49.496;8.154;2024-03-23T12:31:58;2.30;;;2.20;;
26594;SDS011;14238;49.496;8.154;2024-03-23T12:34:24;5.60;;;5.20;;
26594;SDS011;14238;49.496;8.154;2024-03-23T12:36:51;2.43;;;2.23;;
26594;SDS011;14238;49.496;8.154;2024-03-23T12:39:16;4.50;;;2.73;;
26594;SDS011;14238;49.496;8.154;2024-03-23T12:41:43;3.50;;;2.50;;
26594;SDS011;14238;49.496;8.154;2024-03-23T12:44:09;1.93;;;1.83;;
26594;SDS011;14238;49.496;8.154;2024-03-23T12:46:37;2.23;;;1.70;;
26594;SDS011;14238;49.496;8.154;2024-03-23T12:49:03;1.80;;;1.40;;
26594;SDS011;14238;49.496;8.154;2024-03-23T12:51:30;3.00;;;2.70;;
26594;SDS011;14238;49.496;8.154;2024-03-23T12:53:56;2.50;;;1.40;;
26594;SDS011;14238;49.496;8.154;2024-03-23T12:56:22;1.33;;;1.23;;
26594;SDS011;14238;49.496;8.154;2024-03-23T12:58:48;1.40;;;1.10;;
26594;SDS011;14238;49.496;8.154;2024-03-23T13:01:16;2.57;;;2.37;;
26594;SDS011;14238;49.496;8.154;2024-03-23T13:03:42;1.80;;;1.70;;
26594;SDS011;14238;49.496;8.154;2024-03-23T13:06:09;2.57;;;2.37;;
26594;SDS011;14238;49.496;8.154;2024-03-23T13:08:35;7.03;;;6.47;;
26594;SDS011;14238;49.496;8.154;2024-03-23T13:11:01;2.33;;;2.23;;
26594;SDS011;14238;49.496;8.154;2024-03-23T13:13:28;2.87;;;2.57;;
26594;SDS011;14238;49.496;8.154;2024-03-23T13:15:54;2.40;;;1.70;;
26594;SDS011;14238;49.496;8.154;2024-03-23T13:18:20;4.67;;;4.30;;
26594;SDS011;14238;49.496;8.154;2024-03-23T13:20:46;4.90;;;4.07;;
26594;SDS011;14238;49.496;8.154;2024-03-23T13:23:12;2.70;;;1.80;;
26594;SDS011;14238;49.496;8.154;2024-03-23T13:25:38;1.93;;;1.40;;
26594;SDS011;14238;49.496;8.154;2024-03-23T13:28:04;1.40;;;1.30;;
26594;SDS011;14238;49.496;8.154;2024-03-23T13:30:30;1.50;;;1.03;;
26594;SDS011;14238;49.496;8.154;2024-03-23T13:32:56;0.97;;;0.97;;
26594;SDS011;14238;49.496;8.154;2024-03-23T13:35:22;1.90;;;1.00;;
26594;SDS011;14238;49.496;8.154;2024-03-23T13:37:48;1.40;;;1.30;;
26594;SDS011;14238;49.496;8.154;2024-03-23T13:40:14;0.93;;;0.90;;
26594;SDS011;14238;49.496;8.154;2024-03-23T13:42:40;3.80;;;1.47;;
26594;SDS011;14238;49.496;8.154;2024-03-23T13:45:06;1.70;;;1.60;;
26594;SDS011;14238;49.496;8.154;2024-03-23T13:47:32;1.33;;;1.23;;
26594;SDS011;14238;49.496;8.154;2024-03-23T13:49:58;1.20;;;1.10;;
26594;SDS011;14238;49.496;8.154;2024-03-23T13:52:24;1.13;;;0.80;;
26594;SDS011;14238;49.496;8.154;2024-03-23T13:54:51;0.80;;;0.80;;
26594;SDS011;14238;49.496;8.154;2024-03-23T13:57:17;3.30;;;1.20;;
26594;SDS011;14238;49.496;8.154;2024-03-23T13:59:46;0.80;;;0.80;;
26594;SDS011;14238;49.496;8.154;2024-03-23T14:02:12;3.20;;;2.50;;
26594;SDS011;14238;49.496;8.154;2024-03-23T14:04:39;1.50;;;1.40;;
26594;SDS011;14238;49.496;8.154;2024-03-23T14:07:05;1.10;;;1.00;;
26594;SDS011;14238;49.496;8.154;2024-03-23T14:09:32;0.73;;;0.70;;
26594;SDS011;14238;49.496;8.154;2024-03-23T14:11:58;1.70;;;1.30;;
26594;SDS011;14238;49.496;8.154;2024-03-23T14:14:25;1.93;;;0.83;;
26594;SDS011;14238;49.496;8.154;2024-03-23T14:16:51;1.50;;;0.90;;
26594;SDS011;14238;49.496;8.154;2024-03-23T14:19:18;0.77;;;0.77;;
26594;SDS011;14238;49.496;8.154;2024-03-23T14:21:44;0.57;;;0.57;;
26594;SDS011;14238;49.496;8.154;2024-03-23T14:24:10;2.83;;;1.00;;
26594;SDS011;14238;49.496;8.154;2024-03-23T14:26:36;1.00;;;0.90;;
26594;SDS011;14238;49.496;8.154;2024-03-23T14:29:02;0.83;;;0.80;;
26594;SDS011;14238;49.496;8.154;2024-03-23T14:31:28;0.80;;;0.80;;
26594;SDS011;14238;49.496;8.154;2024-03-23T14:33:54;0.93;;;0.70;;
26594;SDS011;14238;49.496;8.154;2024-03-23T14:36:20;1.13;;;1.03;;
26594;SDS011;14238;49.496;8.154;2024-03-23T14:38:47;1.67;;;0.90;;
26594;SDS011;14238;49.496;8.154;2024-03-23T14:41:13;1.60;;;0.70;;
26594;SDS011;14238;49.496;8.154;2024-03-23T14:43:39;2.00;;;1.10;;
26594;SDS011;14238;49.496;8.154;2024-03-23T14:46:09;0.80;;;0.80;;
26594;SDS011;14238;49.496;8.154;2024-03-23T14:48:36;1.77;;;1.40;;
26594;SDS011;14238;49.496;8.154;2024-03-23T14:51:02;3.93;;;1.17;;
26594;SDS011;14238;49.496;8.154;2024-03-23T14:53:32;1.23;;;0.80;;
26594;SDS011;14238;49.496;8.154;2024-03-23T14:56:01;0.80;;;0.73;;
26594;SDS011;14238;49.496;8.154;2024-03-23T14:58:28;1.80;;;0.80;;
26594;SDS011;14238;49.496;8.154;2024-03-23T15:01:04;1.00;;;0.90;;
26594;SDS011;14238;49.496;8.154;2024-03-23T15:03:34;0.80;;;0.80;;
26594;SDS011;14238;49.496;8.154;2024-03-23T15:06:00;0.83;;;0.83;;
26594;SDS011;14238;49.496;8.154;2024-03-23T15:08:26;0.97;;;0.60;;
26594;SDS011;14238;49.496;8.154;2024-03-23T15:10:53;1.80;;;0.60;;
26594;SDS011;14238;49.496;8.154;2024-03-23T15:13:19;2.43;;;0.97;;
26594;SDS011;14238;49.496;8.154;2024-03-23T15:15:47;1.43;;;0.80;;
26594;SDS011;14238;49.496;8.154;2024-03-23T15:18:14;2.20;;;0.80;;
26594;SDS011;14238;49.496;8.154;2024-03-23T15:20:41;2.17;;;1.30;;
26594;SDS011;14238;49.496;8.154;2024-03-23T15:23:07;5.73;;;1.53;;
26594;SDS011;14238;49.496;8.154;2024-03-23T15:25:33;2.07;;;1.37;;
26594;SDS011;14238;49.496;8.154;2024-03-23T15:27:58;1.90;;;1.27;;
26594;SDS011;14238;49.496;8.154;2024-03-23T15:30:25;2.77;;;1.40;;
26594;SDS011;14238;49.496;8.154;2024-03-23T15:32:51;1.07;;;1.00;;
26594;SDS011;14238;49.496;8.154;2024-03-23T15:35:17;1.33;;;1.23;;
26594;SDS011;14238;49.496;8.154;2024-03-23T15:37:44;0.80;;;0.80;;
26594;SDS011;14238;49.496;8.154;2024-03-23T15:40:09;0.53;;;0.53;;